sensor_id;sensor_type;location;lat;lon;timestamp;P1;durP1;ratioP1;P2;durP2;ratioP2
28802;SDS011;15949;55.656;37.422;2023-09-30T00:01:55;24.13;;;15.77;;
28802;SDS011;15949;55.656;37.422;2023-09-30T00:07:00;24.05;;;15.85;;
28802;SDS011;15949;55.656;37.422;2023-09-30T00:12:06;26.70;;;16.85;;
28802;SDS011;15949;55.656;37.422;2023-09-30T00:17:12;26.98;;;16.27;;
28802;SDS011;15949;55.656;37.422;2023-09-30T00:22:17;29.77;;;17.00;;
28802;SDS011;15949;55.656;37.422;2023-09-30T00:27:23;22.05;;;15.57;;
28802;SDS011;15949;55.656;37.422;2023-09-30T00:32:29;22.90;;;15.65;;
28802;SDS011;15949;55.656;37.422;2023-09-30T00:37:34;22.58;;;15.27;;
28802;SDS011;15949;55.656;37.422;2023-09-30T00:42:40;21.58;;;14.63;;
28802;SDS011;15949;55.656;37.422;2023-09-30T00:47:46;23.30;;;15.75;;
28802;SDS011;15949;55.656;37.422;2023-09-30T00:52:52;23.63;;;16.00;;
28802;SDS011;15949;55.656;37.422;2023-09-30T00:57:58;21.58;;;16.27;;
28802;SDS011;15949;55.656;37.422;2023-09-30T01:03:04;26.48;;;16.65;;
28802;SDS011;15949;55.656;37.422;2023-09-30T01:08:10;26.38;;;16.30;;
28802;SDS011;15949;55.656;37.422;2023-09-30T01:13:16;25.33;;;15.52;;
28802;SDS011;15949;55.656;37.422;2023-09-30T01:18:22;27.45;;;15.75;;
28802;SDS011;15949;55.656;37.422;2023-09-30T01:23:27;25.92;;;16.27;;
28802;SDS011;15949;55.656;37.422;2023-09-30T01:28:34;22.63;;;15.68;;
28802;SDS011;15949;55.656;37.422;2023-09-30T01:33:40;20.42;;;15.35;;
28802;SDS011;15949;55.656;37.422;2023-09-30T01:38:46;24.48;;;16.08;;
28802;SDS011;15949;55.656;37.422;2023-09-30T01:43:51;25.65;;;16.00;;
28802;SDS011;15949;55.656;37.422;2023-09-30T01:48:57;23.88;;;15.52;;
28802;SDS011;15949;55.656;37.422;2023-09-30T01:54:02;23.05;;;15.80;;
28802;SDS011;15949;55.656;37.422;2023-09-30T01:59:08;22.73;;;15.45;;
28802;SDS011;15949;55.656;37.422;2023-09-30T02:04:14;20.75;;;14.80;;
28802;SDS011;15949;55.656;37.422;2023-09-30T02:09:22;20.42;;;14.48;;
28802;SDS011;15949;55.656;37.422;2023-09-30T02:14:28;26.27;;;16.30;;
28802;SDS011;15949;55.656;37.422;2023-09-30T02:19:34;21.58;;;15.07;;
28802;SDS011;15949;55.656;37.422;2023-09-30T02:24:40;19.65;;;15.63;;
28802;SDS011;15949;55.656;37.422;2023-09-30T02:29:45;24.77;;;15.55;;
28802;SDS011;15949;55.656;37.422;2023-09-30T02:34:51;25.38;;;16.40;;
28802;SDS011;15949;55.656;37.422;2023-09-30T02:39:57;25.40;;;16.25;;
28802;SDS011;15949;55.656;37.422;2023-09-30T02:45:03;21.13;;;15.85;;
28802;SDS011;15949;55.656;37.422;2023-09-30T02:50:10;20.05;;;15.32;;
28802;SDS011;15949;55.656;37.422;2023-09-30T02:55:19;23.15;;;15.15;;
28802;SDS011;15949;55.656;37.422;2023-09-30T03:00:24;20.17;;;15.23;;
28802;SDS011;15949;55.656;37.422;2023-09-30T03:05:31;25.00;;;15.57;;
28802;SDS011;15949;55.656;37.422;2023-09-30T03:10:38;24.85;;;16.48;;
28802;SDS011;15949;55.656;37.422;2023-09-30T03:15:45;30.45;;;17.85;;
28802;SDS011;15949;55.656;37.422;2023-09-30T03:20:52;27.52;;;16.98;;
28802;SDS011;15949;55.656;37.422;2023-09-30T03:26:05;25.98;;;17.85;;
28802;SDS011;15949;55.656;37.422;2023-09-30T03:31:18;27.15;;;18.05;;
28802;SDS011;15949;55.656;37.422;2023-09-30T03:36:25;25.25;;;18.58;;
28802;SDS011;15949;55.656;37.422;2023-09-30T03:41:32;26.33;;;17.50;;
28802;SDS011;15949;55.656;37.422;2023-09-30T03:46:40;29.30;;;18.33;;
28802;SDS011;15949;55.656;37.422;2023-09-30T03:51:46;27.75;;;17.75;;
28802;SDS011;15949;55.656;37.422;2023-09-30T03:56:52;28.67;;;17.55;;
28802;SDS011;15949;55.656;37.422;2023-09-30T04:01:57;27.33;;;18.20;;
28802;SDS011;15949;55.656;37.422;2023-09-30T04:07:03;29.40;;;19.98;;
28802;SDS011;15949;55.656;37.422;2023-09-30T04:12:10;25.35;;;18.40;;
28802;SDS011;15949;55.656;37.422;2023-09-30T04:17:16;29.52;;;19.60;;
28802;SDS011;15949;55.656;37.422;2023-09-30T04:22:22;30.58;;;20.40;;
28802;SDS011;15949;55.656;37.422;2023-09-30T04:27:29;38.08;;;20.90;;
28802;SDS011;15949;55.656;37.422;2023-09-30T04:32:36;31.50;;;19.88;;
28802;SDS011;15949;55.656;37.422;2023-09-30T04:37:42;29.60;;;19.13;;
28802;SDS011;15949;55.656;37.422;2023-09-30T04:42:48;27.45;;;19.13;;
28802;SDS011;15949;55.656;37.422;2023-09-30T04:47:54;27.85;;;18.48;;
28802;SDS011;15949;55.656;37.422;2023-09-30T04:53:03;29.33;;;18.67;;
28802;SDS011;15949;55.656;37.422;2023-09-30T04:58:09;25.98;;;17.48;;
28802;SDS011;15949;55.656;37.422;2023-09-30T05:03:14;23.42;;;16.73;;
28802;SDS011;15949;55.656;37.422;2023-09-30T05:08:20;25.88;;;17.00;;
28802;SDS011;15949;55.656;37.422;2023-09-30T05:13:26;26.35;;;17.17;;
28802;SDS011;15949;55.656;37.422;2023-09-30T05:18:32;25.05;;;17.60;;
28802;SDS011;15949;55.656;37.422;2023-09-30T05:23:38;23.95;;;17.42;;
28802;SDS011;15949;55.656;37.422;2023-09-30T05:28:44;25.85;;;17.50;;
28802;SDS011;15949;55.656;37.422;2023-09-30T05:33:49;26.50;;;16.65;;
28802;SDS011;15949;55.656;37.422;2023-09-30T05:38:55;23.67;;;15.55;;
28802;SDS011;15949;55.656;37.422;2023-09-30T05:44:01;23.48;;;15.77;;
28802;SDS011;15949;55.656;37.422;2023-09-30T05:49:06;26.38;;;15.90;;
28802;SDS011;15949;55.656;37.422;2023-09-30T05:54:18;21.85;;;15.23;;
28802;SDS011;15949;55.656;37.422;2023-09-30T05:59:24;21.13;;;15.02;;
28802;SDS011;15949;55.656;37.422;2023-09-30T06:04:30;22.42;;;14.52;;
28802;SDS011;15949;55.656;37.422;2023-09-30T06:09:38;20.13;;;14.60;;
28802;SDS011;15949;55.656;37.422;2023-09-30T06:14:44;22.77;;;14.63;;
28802;SDS011;15949;55.656;37.422;2023-09-30T06:19:50;23.90;;;14.18;;
28802;SDS011;15949;55.656;37.422;2023-09-30T06:24:56;24.60;;;13.88;;
28802;SDS011;15949;55.656;37.422;2023-09-30T06:30:01;24.33;;;13.05;;
28802;SDS011;15949;55.656;37.422;2023-09-30T06:35:08;23.42;;;13.57;;
28802;SDS011;15949;55.656;37.422;2023-09-30T06:40:15;21.27;;;13.18;;
28802;SDS011;15949;55.656;37.422;2023-09-30T06:45:21;24.70;;;13.43;;
28802;SDS011;15949;55.656;37.422;2023-09-30T06:50:27;26.90;;;13.60;;
28802;SDS011;15949;55.656;37.422;2023-09-30T06:55:32;18.98;;;12.48;;
28802;SDS011;15949;55.656;37.422;2023-09-30T07:00:38;20.48;;;11.82;;
28802;SDS011;15949;55.656;37.422;2023-09-30T07:05:46;25.30;;;13.20;;
28802;SDS011;15949;55.656;37.422;2023-09-30T07:10:55;16.77;;;11.40;;
28802;SDS011;15949;55.656;37.422;2023-09-30T07:16:01;16.10;;;11.43;;
28802;SDS011;15949;55.656;37.422;2023-09-30T07:21:07;21.83;;;11.60;;
28802;SDS011;15949;55.656;37.422;2023-09-30T07:26:13;22.63;;;11.35;;
28802;SDS011;15949;55.656;37.422;2023-09-30T07:31:19;20.50;;;11.30;;
28802;SDS011;15949;55.656;37.422;2023-09-30T07:36:25;19.33;;;10.13;;
28802;SDS011;15949;55.656;37.422;2023-09-30T07:41:34;15.88;;;10.45;;
28802;SDS011;15949;55.656;37.422;2023-09-30T07:46:41;15.63;;;10.23;;
28802;SDS011;15949;55.656;37.422;2023-09-30T07:51:48;19.58;;;9.45;;
28802;SDS011;15949;55.656;37.422;2023-09-30T07:56:54;17.77;;;9.10;;
28802;SDS011;15949;55.656;37.422;2023-09-30T08:02:01;16.20;;;9.30;;
28802;SDS011;15949;55.656;37.422;2023-09-30T08:07:09;18.13;;;8.73;;
28802;SDS011;15949;55.656;37.422;2023-09-30T08:12:15;13.65;;;8.07;;
28802;SDS011;15949;55.656;37.422;2023-09-30T08:17:21;11.93;;;8.00;;
28802;SDS011;15949;55.656;37.422;2023-09-30T08:22:26;13.68;;;8.10;;
28802;SDS011;15949;55.656;37.422;2023-09-30T08:27:33;17.67;;;7.82;;
28802;SDS011;15949;55.656;37.422;2023-09-30T08:32:39;16.00;;;7.57;;
28802;SDS011;15949;55.656;37.422;2023-09-30T08:37:45;17.30;;;8.45;;
28802;SDS011;15949;55.656;37.422;2023-09-30T08:42:51;15.32;;;7.90;;
28802;SDS011;15949;55.656;37.422;2023-09-30T08:47:57;16.17;;;7.70;;
28802;SDS011;15949;55.656;37.422;2023-09-30T08:53:09;12.35;;;7.50;;
28802;SDS011;15949;55.656;37.422;2023-09-30T08:58:17;13.00;;;7.50;;
28802;SDS011;15949;55.656;37.422;2023-09-30T09:03:27;14.98;;;8.00;;
28802;SDS011;15949;55.656;37.422;2023-09-30T09:08:33;14.77;;;7.00;;
28802;SDS011;15949;55.656;37.422;2023-09-30T09:13:48;14.60;;;7.95;;
28802;SDS011;15949;55.656;37.422;2023-09-30T09:18:56;19.95;;;7.07;;
28802;SDS011;15949;55.656;37.422;2023-09-30T09:24:01;18.05;;;7.50;;
28802;SDS011;15949;55.656;37.422;2023-09-30T09:29:07;15.48;;;8.10;;
28802;SDS011;15949;55.656;37.422;2023-09-30T09:34:13;18.10;;;7.85;;
28802;SDS011;15949;55.656;37.422;2023-09-30T09:39:28;16.15;;;7.50;;
28802;SDS011;15949;55.656;37.422;2023-09-30T09:44:37;15.38;;;7.80;;
28802;SDS011;15949;55.656;37.422;2023-09-30T09:49:44;20.13;;;7.78;;
28802;SDS011;15949;55.656;37.422;2023-09-30T09:54:50;14.63;;;8.13;;
28802;SDS011;15949;55.656;37.422;2023-09-30T09:59:56;16.02;;;8.18;;
28802;SDS011;15949;55.656;37.422;2023-09-30T10:05:03;13.10;;;7.80;;
28802;SDS011;15949;55.656;37.422;2023-09-30T10:10:12;18.25;;;8.10;;
28802;SDS011;15949;55.656;37.422;2023-09-30T10:20:35;21.70;;;11.98;;
28802;SDS011;15949;55.656;37.422;2023-09-30T10:25:42;21.00;;;11.45;;
28802;SDS011;15949;55.656;37.422;2023-09-30T10:36:25;18.35;;;9.00;;
28802;SDS011;15949;55.656;37.422;2023-09-30T10:46:47;18.88;;;8.70;;
28802;SDS011;15949;55.656;37.422;2023-09-30T10:51:54;15.15;;;9.25;;
28802;SDS011;15949;55.656;37.422;2023-09-30T10:57:01;15.87;;;8.50;;
28802;SDS011;15949;55.656;37.422;2023-09-30T11:02:18;17.52;;;9.95;;
28802;SDS011;15949;55.656;37.422;2023-09-30T11:07:25;14.07;;;7.85;;
28802;SDS011;15949;55.656;37.422;2023-09-30T11:12:33;14.23;;;7.90;;
28802;SDS011;15949;55.656;37.422;2023-09-30T11:17:39;14.98;;;7.18;;
28802;SDS011;15949;55.656;37.422;2023-09-30T11:22:46;19.83;;;7.82;;
28802;SDS011;15949;55.656;37.422;2023-09-30T11:27:52;15.75;;;8.13;;
28802;SDS011;15949;55.656;37.422;2023-09-30T11:32:58;15.75;;;7.35;;
28802;SDS011;15949;55.656;37.422;2023-09-30T11:38:05;13.00;;;7.47;;
28802;SDS011;15949;55.656;37.422;2023-09-30T11:43:11;18.60;;;7.68;;
28802;SDS011;15949;55.656;37.422;2023-09-30T11:48:17;13.15;;;7.68;;
28802;SDS011;15949;55.656;37.422;2023-09-30T11:53:28;13.75;;;7.40;;
28802;SDS011;15949;55.656;37.422;2023-09-30T11:58:37;13.85;;;8.02;;
28802;SDS011;15949;55.656;37.422;2023-09-30T12:03:44;20.95;;;8.70;;
28802;SDS011;15949;55.656;37.422;2023-09-30T12:08:52;12.77;;;8.00;;
28802;SDS011;15949;55.656;37.422;2023-09-30T12:13:59;13.57;;;7.50;;
28802;SDS011;15949;55.656;37.422;2023-09-30T12:19:05;19.67;;;7.53;;
28802;SDS011;15949;55.656;37.422;2023-09-30T12:24:12;13.50;;;7.45;;
28802;SDS011;15949;55.656;37.422;2023-09-30T12:29:21;15.40;;;7.75;;
28802;SDS011;15949;55.656;37.422;2023-09-30T12:34:28;10.63;;;6.97;;
28802;SDS011;15949;55.656;37.422;2023-09-30T12:39:34;15.05;;;8.05;;
28802;SDS011;15949;55.656;37.422;2023-09-30T12:44:39;16.92;;;7.85;;
28802;SDS011;15949;55.656;37.422;2023-09-30T12:49:45;14.60;;;7.68;;
28802;SDS011;15949;55.656;37.422;2023-09-30T12:54:51;13.32;;;7.53;;
28802;SDS011;15949;55.656;37.422;2023-09-30T12:59:56;13.35;;;7.85;;
28802;SDS011;15949;55.656;37.422;2023-09-30T13:05:02;14.80;;;7.53;;
28802;SDS011;15949;55.656;37.422;2023-09-30T13:10:08;26.92;;;8.60;;
28802;SDS011;15949;55.656;37.422;2023-09-30T13:15:14;16.15;;;7.63;;
28802;SDS011;15949;55.656;37.422;2023-09-30T13:20:19;13.55;;;8.00;;
28802;SDS011;15949;55.656;37.422;2023-09-30T13:25:25;13.50;;;7.80;;
28802;SDS011;15949;55.656;37.422;2023-09-30T13:30:31;28.77;;;9.00;;
28802;SDS011;15949;55.656;37.422;2023-09-30T13:35:37;26.25;;;8.52;;
28802;SDS011;15949;55.656;37.422;2023-09-30T13:40:43;21.17;;;8.65;;
28802;SDS011;15949;55.656;37.422;2023-09-30T13:45:49;17.80;;;8.25;;
28802;SDS011;15949;55.656;37.422;2023-09-30T13:51:03;23.15;;;8.60;;
28802;SDS011;15949;55.656;37.422;2023-09-30T13:56:09;28.15;;;9.50;;
28802;SDS011;15949;55.656;37.422;2023-09-30T14:01:15;28.60;;;8.45;;
28802;SDS011;15949;55.656;37.422;2023-09-30T14:06:21;25.15;;;9.77;;
28802;SDS011;15949;55.656;37.422;2023-09-30T14:11:27;15.15;;;8.88;;
28802;SDS011;15949;55.656;37.422;2023-09-30T14:16:33;16.80;;;9.60;;
28802;SDS011;15949;55.656;37.422;2023-09-30T14:21:39;21.20;;;10.23;;
28802;SDS011;15949;55.656;37.422;2023-09-30T14:26:45;25.02;;;10.68;;
28802;SDS011;15949;55.656;37.422;2023-09-30T14:31:51;23.48;;;11.82;;
28802;SDS011;15949;55.656;37.422;2023-09-30T14:36:57;21.65;;;11.93;;
28802;SDS011;15949;55.656;37.422;2023-09-30T14:42:02;21.55;;;12.23;;
28802;SDS011;15949;55.656;37.422;2023-09-30T14:47:08;88.88;;;14.82;;
28802;SDS011;15949;55.656;37.422;2023-09-30T14:52:14;48.10;;;13.68;;
28802;SDS011;15949;55.656;37.422;2023-09-30T14:57:20;27.30;;;13.88;;
28802;SDS011;15949;55.656;37.422;2023-09-30T15:02:27;23.27;;;14.50;;
28802;SDS011;15949;55.656;37.422;2023-09-30T15:07:33;33.30;;;19.35;;
28802;SDS011;15949;55.656;37.422;2023-09-30T15:12:39;27.55;;;16.58;;
28802;SDS011;15949;55.656;37.422;2023-09-30T15:17:45;24.73;;;15.52;;
28802;SDS011;15949;55.656;37.422;2023-09-30T15:22:50;24.27;;;14.90;;
28802;SDS011;15949;55.656;37.422;2023-09-30T15:27:57;29.38;;;15.43;;
28802;SDS011;15949;55.656;37.422;2023-09-30T15:33:03;34.15;;;18.45;;
28802;SDS011;15949;55.656;37.422;2023-09-30T15:38:09;32.88;;;18.95;;
28802;SDS011;15949;55.656;37.422;2023-09-30T15:43:14;27.75;;;17.60;;
28802;SDS011;15949;55.656;37.422;2023-09-30T15:48:20;38.08;;;21.73;;
28802;SDS011;15949;55.656;37.422;2023-09-30T15:53:26;22.75;;;17.83;;
28802;SDS011;15949;55.656;37.422;2023-09-30T15:58:33;23.73;;;16.25;;
28802;SDS011;15949;55.656;37.422;2023-09-30T16:03:39;28.42;;;17.25;;
28802;SDS011;15949;55.656;37.422;2023-09-30T16:08:47;34.72;;;25.63;;
28802;SDS011;15949;55.656;37.422;2023-09-30T16:13:53;41.78;;;25.17;;
28802;SDS011;15949;55.656;37.422;2023-09-30T16:18:59;39.15;;;24.73;;
28802;SDS011;15949;55.656;37.422;2023-09-30T16:24:05;35.50;;;24.17;;
28802;SDS011;15949;55.656;37.422;2023-09-30T16:29:11;34.80;;;20.40;;
28802;SDS011;15949;55.656;37.422;2023-09-30T16:34:16;27.25;;;17.25;;
28802;SDS011;15949;55.656;37.422;2023-09-30T16:39:22;29.08;;;17.10;;
28802;SDS011;15949;55.656;37.422;2023-09-30T16:44:28;28.45;;;17.30;;
28802;SDS011;15949;55.656;37.422;2023-09-30T16:49:33;29.75;;;18.50;;
28802;SDS011;15949;55.656;37.422;2023-09-30T16:54:39;30.98;;;17.00;;
28802;SDS011;15949;55.656;37.422;2023-09-30T16:59:45;33.78;;;16.45;;
28802;SDS011;15949;55.656;37.422;2023-09-30T17:04:51;29.10;;;17.17;;
28802;SDS011;15949;55.656;37.422;2023-09-30T17:09:57;28.13;;;16.33;;
28802;SDS011;15949;55.656;37.422;2023-09-30T17:15:05;25.45;;;14.98;;
28802;SDS011;15949;55.656;37.422;2023-09-30T17:20:12;22.02;;;15.07;;
28802;SDS011;15949;55.656;37.422;2023-09-30T17:25:19;25.83;;;14.65;;
28802;SDS011;15949;55.656;37.422;2023-09-30T17:30:24;28.48;;;15.55;;
28802;SDS011;15949;55.656;37.422;2023-09-30T17:35:30;27.38;;;15.25;;
28802;SDS011;15949;55.656;37.422;2023-09-30T17:40:36;24.02;;;14.45;;
28802;SDS011;15949;55.656;37.422;2023-09-30T17:45:44;23.55;;;14.82;;
28802;SDS011;15949;55.656;37.422;2023-09-30T17:50:49;23.80;;;13.82;;
28802;SDS011;15949;55.656;37.422;2023-09-30T17:55:56;19.92;;;13.18;;
28802;SDS011;15949;55.656;37.422;2023-09-30T18:01:02;17.63;;;13.57;;
28802;SDS011;15949;55.656;37.422;2023-09-30T18:06:08;25.83;;;13.88;;
28802;SDS011;15949;55.656;37.422;2023-09-30T18:11:15;25.88;;;13.80;;
28802;SDS011;15949;55.656;37.422;2023-09-30T18:16:22;20.58;;;13.35;;
28802;SDS011;15949;55.656;37.422;2023-09-30T18:21:28;19.30;;;13.27;;
28802;SDS011;15949;55.656;37.422;2023-09-30T18:26:33;19.60;;;13.32;;
28802;SDS011;15949;55.656;37.422;2023-09-30T18:31:39;17.73;;;13.25;;
28802;SDS011;15949;55.656;37.422;2023-09-30T18:36:45;20.63;;;13.23;;
28802;SDS011;15949;55.656;37.422;2023-09-30T18:41:52;33.40;;;21.33;;
28802;SDS011;15949;55.656;37.422;2023-09-30T18:46:57;22.83;;;14.75;;
28802;SDS011;15949;55.656;37.422;2023-09-30T18:52:03;22.85;;;12.82;;
28802;SDS011;15949;55.656;37.422;2023-09-30T18:57:09;17.77;;;13.05;;
28802;SDS011;15949;55.656;37.422;2023-09-30T19:02:14;24.55;;;13.55;;
28802;SDS011;15949;55.656;37.422;2023-09-30T19:07:20;19.30;;;13.18;;
28802;SDS011;15949;55.656;37.422;2023-09-30T19:12:25;18.67;;;12.75;;
28802;SDS011;15949;55.656;37.422;2023-09-30T19:17:32;23.00;;;13.25;;
28802;SDS011;15949;55.656;37.422;2023-09-30T19:22:38;22.00;;;12.40;;
28802;SDS011;15949;55.656;37.422;2023-09-30T19:27:43;17.25;;;12.20;;
28802;SDS011;15949;55.656;37.422;2023-09-30T19:32:49;23.05;;;13.00;;
28802;SDS011;15949;55.656;37.422;2023-09-30T19:37:54;17.80;;;12.25;;
28802;SDS011;15949;55.656;37.422;2023-09-30T19:43:00;21.60;;;13.10;;
28802;SDS011;15949;55.656;37.422;2023-09-30T19:48:06;25.77;;;12.75;;
28802;SDS011;15949;55.656;37.422;2023-09-30T19:53:12;19.92;;;12.57;;
28802;SDS011;15949;55.656;37.422;2023-09-30T19:58:17;17.98;;;12.40;;
28802;SDS011;15949;55.656;37.422;2023-09-30T20:03:23;21.50;;;12.43;;
28802;SDS011;15949;55.656;37.422;2023-09-30T20:08:30;17.38;;;12.45;;
28802;SDS011;15949;55.656;37.422;2023-09-30T20:13:35;19.02;;;12.68;;
28802;SDS011;15949;55.656;37.422;2023-09-30T20:18:41;17.60;;;12.52;;
28802;SDS011;15949;55.656;37.422;2023-09-30T20:23:47;20.73;;;12.45;;
28802;SDS011;15949;55.656;37.422;2023-09-30T20:28:55;22.20;;;11.93;;
28802;SDS011;15949;55.656;37.422;2023-09-30T20:34:01;25.05;;;12.85;;
28802;SDS011;15949;55.656;37.422;2023-09-30T20:39:08;16.15;;;12.00;;
28802;SDS011;15949;55.656;37.422;2023-09-30T20:44:15;17.02;;;11.85;;
28802;SDS011;15949;55.656;37.422;2023-09-30T20:49:21;20.83;;;12.50;;
28802;SDS011;15949;55.656;37.422;2023-09-30T20:54:27;19.02;;;11.50;;
28802;SDS011;15949;55.656;37.422;2023-09-30T20:59:32;20.27;;;12.07;;
28802;SDS011;15949;55.656;37.422;2023-09-30T21:04:38;15.43;;;11.25;;
28802;SDS011;15949;55.656;37.422;2023-09-30T21:09:44;18.40;;;11.52;;
28802;SDS011;15949;55.656;37.422;2023-09-30T21:14:51;18.73;;;11.55;;
28802;SDS011;15949;55.656;37.422;2023-09-30T21:19:57;19.35;;;11.95;;
28802;SDS011;15949;55.656;37.422;2023-09-30T21:25:02;18.83;;;11.85;;
28802;SDS011;15949;55.656;37.422;2023-09-30T21:30:08;18.65;;;12.02;;
28802;SDS011;15949;55.656;37.422;2023-09-30T21:35:14;21.35;;;12.07;;
28802;SDS011;15949;55.656;37.422;2023-09-30T21:40:21;19.65;;;11.63;;
28802;SDS011;15949;55.656;37.422;2023-09-30T21:45:27;17.95;;;11.32;;
28802;SDS011;15949;55.656;37.422;2023-09-30T21:50:32;20.75;;;11.30;;
28802;SDS011;15949;55.656;37.422;2023-09-30T21:55:38;18.52;;;11.68;;
28802;SDS011;15949;55.656;37.422;2023-09-30T22:00:45;18.88;;;11.45;;
28802;SDS011;15949;55.656;37.422;2023-09-30T22:05:53;16.05;;;11.60;;
28802;SDS011;15949;55.656;37.422;2023-09-30T22:11:00;22.00;;;11.25;;
28802;SDS011;15949;55.656;37.422;2023-09-30T22:16:07;18.20;;;11.27;;
28802;SDS011;15949;55.656;37.422;2023-09-30T22:21:13;17.15;;;10.50;;
28802;SDS011;15949;55.656;37.422;2023-09-30T22:26:18;19.10;;;11.30;;
28802;SDS011;15949;55.656;37.422;2023-09-30T22:31:24;21.15;;;11.30;;
28802;SDS011;15949;55.656;37.422;2023-09-30T22:36:30;19.27;;;11.32;;
28802;SDS011;15949;55.656;37.422;2023-09-30T22:41:38;19.35;;;10.90;;
28802;SDS011;15949;55.656;37.422;2023-09-30T22:46:44;16.00;;;10.77;;
28802;SDS011;15949;55.656;37.422;2023-09-30T22:51:49;21.15;;;11.15;;
28802;SDS011;15949;55.656;37.422;2023-09-30T22:56:55;20.75;;;11.40;;
28802;SDS011;15949;55.656;37.422;2023-09-30T23:02:01;17.70;;;11.52;;
28802;SDS011;15949;55.656;37.422;2023-09-30T23:07:07;19.42;;;11.50;;
28802;SDS011;15949;55.656;37.422;2023-09-30T23:12:14;19.55;;;10.93;;
28802;SDS011;15949;55.656;37.422;2023-09-30T23:17:20;14.35;;;10.75;;
28802;SDS011;15949;55.656;37.422;2023-09-30T23:22:27;16.45;;;11.32;;
28802;SDS011;15949;55.656;37.422;2023-09-30T23:27:33;19.05;;;11.95;;
28802;SDS011;15949;55.656;37.422;2023-09-30T23:32:39;20.55;;;11.90;;
28802;SDS011;15949;55.656;37.422;2023-09-30T23:37:46;18.58;;;11.27;;
28802;SDS011;15949;55.656;37.422;2023-09-30T23:42:56;16.58;;;11.80;;
28802;SDS011;15949;55.656;37.422;2023-09-30T23:48:04;17.13;;;11.20;;
28802;SDS011;15949;55.656;37.422;2023-09-30T23:53:10;18.42;;;11.40;;
28802;SDS011;15949;55.656;37.422;2023-09-30T23:58:16;18.00;;;11.18;;
